Time;durP1;ratioP1;P1;durP2;ratioP2;P2;SDS_P1;SDS_P2;PMS_P1;PMS_P2;Temp;Humidity;BMP_temperature;BMP_pressure;BME280_temperature;BME280_humidity;BME280_pressure;Samples;Min_cycle;Max_cycle;Signal;HPM_P1;HPM_P2
2021/08/13 00:18:01;;;;;;;50.55;19.85;;;;;;;;;;4429926;28;20112;-66
2021/08/13 00:20:27;;;;;;;34.92;11.88;;;;;;;;;;4273969;33;20603;-66
2021/08/13 00:22:53;;;;;;;46.65;19.80;;;;;;;;;;4259652;33;20475;-66
2021/08/13 00:25:19;;;;;;;43.75;18.50;;;;;;;;;;4250331;33;20112;-66
2021/08/13 00:27:45;;;;;;;40.38;18.42;;;;;;;;;;4273859;33;20540;-66
2021/08/13 00:30:11;;;;;;;43.05;18.75;;;;;;;;;;4273970;33;20127;-66
2021/08/13 00:32:38;;;;;;;49.13;21.17;;;;;;;;;;4274089;33;20465;-66
2021/08/13 00:35:04;;;;;;;50.50;22.27;;;;;;;;;;4274079;33;20620;-66
2021/08/13 00:37:31;;;;;;;43.53;19.45;;;;;;;;;;4268224;33;20097;-67
2021/08/13 00:39:57;;;;;;;43.63;21.10;;;;;;;;;;4269713;33;20084;-67
2021/08/13 00:42:23;;;;;;;40.95;20.23;;;;;;;;;;4264998;33;20128;-67
2021/08/13 00:44:49;;;;;;;44.22;19.70;;;;;;;;;;4262277;33;20109;-67
2021/08/13 00:47:15;;;;;;;49.15;18.60;;;;;;;;;;4255637;33;20112;-67
2021/08/13 00:49:41;;;;;;;47.62;21.08;;;;;;;;;;4276173;33;20120;-67
2021/08/13 00:52:07;;;;;;;36.50;15.85;;;;;;;;;;4276376;33;20127;-66
2021/08/13 00:54:32;;;;;;;43.28;18.50;;;;;;;;;;4276084;33;20116;-66
2021/08/13 00:56:58;;;;;;;54.40;23.85;;;;;;;;;;4249561;33;20124;-66
2021/08/13 00:59:24;;;;;;;51.65;22.62;;;;;;;;;;4261730;33;20239;-66
2021/08/13 01:01:50;;;;;;;45.00;20.73;;;;;;;;;;4248776;33;20110;-66
2021/08/13 01:04:16;;;;;;;41.05;18.90;;;;;;;;;;4248647;33;20195;-66
2021/08/13 01:06:42;;;;;;;54.30;19.65;;;;;;;;;;4261709;33;20560;-66
2021/08/13 01:09:08;;;;;;;49.63;20.88;;;;;;;;;;4261627;33;20135;-66
2021/08/13 01:11:52;;;;;;;46.65;20.27;;;;;;;;;;4248402;33;20166;-66
2021/08/13 01:14:25;;;;;;;41.75;20.70;;;;;;;;;;4261605;33;20116;-66
2021/08/13 01:16:52;;;;;;;44.60;18.83;;;;;;;;;;4261436;33;20609;-66
2021/08/13 01:19:43;;;;;;;54.72;24.20;;;;;;;;;;4261471;33;20512;-66
2021/08/13 01:22:16;;;;;;;53.33;24.83;;;;;;;;;;4261605;33;20116;-66
2021/08/13 01:24:44;;;;;;;49.85;23.02;;;;;;;;;;4261489;33;20109;-66
2021/08/13 01:27:12;;;;;;;47.60;20.77;;;;;;;;;;4248270;33;20515;-66
2021/08/13 01:30:11;;;;;;;51.85;23.23;;;;;;;;;;4248516;33;20182;-66
2021/08/13 01:32:48;;;;;;;54.22;22.35;;;;;;;;;;4250190;33;20139;-67
2021/08/13 01:35:19;;;;;;;52.95;23.92;;;;;;;;;;4248618;33;20115;-66
2021/08/13 01:37:51;;;;;;;60.53;26.15;;;;;;;;;;4248503;33;20199;-66
2021/08/13 01:40:17;;;;;;;54.70;25.05;;;;;;;;;;4257365;33;20194;-66
2021/08/13 01:42:44;;;;;;;59.00;25.90;;;;;;;;;;4250606;33;20132;-66
2021/08/13 01:45:13;;;;;;;56.08;23.92;;;;;;;;;;4250799;33;20131;-66
2021/08/13 01:47:40;;;;;;;60.75;26.00;;;;;;;;;;4262502;33;20187;-66
2021/08/13 01:50:06;;;;;;;56.17;25.12;;;;;;;;;;4250611;33;20542;-67
2021/08/13 01:52:32;;;;;;;58.67;26.42;;;;;;;;;;4275610;33;20601;-66
2021/08/13 01:54:58;;;;;;;59.17;25.85;;;;;;;;;;4262573;33;20112;-67
2021/08/13 01:57:24;;;;;;;59.90;26.02;;;;;;;;;;4250404;33;20541;-66
2021/08/13 01:59:50;;;;;;;55.10;25.75;;;;;;;;;;4262115;33;20503;-66
2021/08/13 02:02:15;;;;;;;59.55;25.17;;;;;;;;;;4262227;33;20495;-66
2021/08/13 02:04:42;;;;;;;59.38;25.85;;;;;;;;;;4250417;33;20120;-66
2021/08/13 02:07:10;;;;;;;59.70;27.17;;;;;;;;;;4275311;33;20104;-66
2021/08/13 02:09:36;;;;;;;63.53;26.33;;;;;;;;;;4262321;33;20096;-66
2021/08/13 02:12:02;;;;;;;61.10;26.85;;;;;;;;;;4275526;33;20199;-66
2021/08/13 02:14:28;;;;;;;60.35;27.80;;;;;;;;;;4275406;33;20448;-66
2021/08/13 02:16:54;;;;;;;57.28;25.77;;;;;;;;;;4275281;33;20288;-66
2021/08/13 02:19:33;;;;;;;58.20;23.95;;;;;;;;;;4250469;33;20128;-66
2021/08/13 02:21:59;;;;;;;51.40;24.85;;;;;;;;;;4250481;33;20115;-66
2021/08/13 02:24:25;;;;;;;61.83;25.65;;;;;;;;;;4275475;33;20140;-66
2021/08/13 02:26:51;;;;;;;63.38;26.98;;;;;;;;;;4262045;33;20613;-67
2021/08/13 02:29:17;;;;;;;57.15;26.75;;;;;;;;;;4262251;33;20135;-66
2021/08/13 02:31:43;;;;;;;63.22;27.27;;;;;;;;;;4261922;33;20131;-66
2021/08/13 02:34:08;;;;;;;58.55;26.30;;;;;;;;;;4261950;33;20124;-66
2021/08/13 02:36:50;;;;;;;57.60;25.65;;;;;;;;;;4275144;33;20195;-66
2021/08/13 02:39:20;;;;;;;48.15;24.80;;;;;;;;;;4274838;33;20096;-68
2021/08/13 02:41:46;;;;;;;52.00;24.37;;;;;;;;;;4250378;33;20104;-68
2021/08/13 02:44:12;;;;;;;56.95;26.62;;;;;;;;;;4261798;33;20151;-68
2021/08/13 02:46:40;;;;;;;50.28;24.30;;;;;;;;;;4261860;33;20099;-68
2021/08/13 02:49:06;;;;;;;54.03;24.52;;;;;;;;;;4250094;33;20122;-68
2021/08/13 02:51:33;;;;;;;56.03;24.70;;;;;;;;;;4261920;33;20124;-68
2021/08/13 02:53:59;;;;;;;60.88;24.80;;;;;;;;;;4262025;33;20489;-68
2021/08/13 02:56:26;;;;;;;52.65;24.30;;;;;;;;;;4261957;33;20118;-68
2021/08/13 02:58:54;;;;;;;55.15;25.27;;;;;;;;;;4261681;33;20135;-68
2021/08/13 03:01:26;;;;;;;55.30;25.67;;;;;;;;;;4249818;33;20135;-68
2021/08/13 03:03:53;;;;;;;53.87;24.83;;;;;;;;;;4261818;33;20123;-68
2021/08/13 03:06:19;;;;;;;52.85;23.60;;;;;;;;;;4249933;33;20115;-68
2021/08/13 03:08:48;;;;;;;57.38;25.92;;;;;;;;;;4261977;33;20100;-68
2021/08/13 03:11:14;;;;;;;48.28;21.02;;;;;;;;;;4249753;33;20103;-68
2021/08/13 03:13:41;;;;;;;54.80;25.00;;;;;;;;;;4261472;33;20528;-68
2021/08/13 03:16:07;;;;;;;54.53;22.80;;;;;;;;;;4274616;33;20121;-68
2021/08/13 03:18:33;;;;;;;56.30;24.95;;;;;;;;;;4247352;33;20135;-68
2021/08/13 03:20:59;;;;;;;50.55;24.40;;;;;;;;;;4259520;33;20468;-68
2021/08/13 03:23:25;;;;;;;55.53;25.95;;;;;;;;;;4259959;33;20111;-68
2021/08/13 03:25:51;;;;;;;61.20;23.23;;;;;;;;;;4259006;33;20124;-68
2021/08/13 03:28:17;;;;;;;53.92;24.92;;;;;;;;;;4258979;33;20111;-68
2021/08/13 03:30:43;;;;;;;55.28;25.42;;;;;;;;;;4260351;33;20147;-68
2021/08/13 03:33:10;;;;;;;58.75;25.42;;;;;;;;;;4260249;33;20124;-68
2021/08/13 03:35:36;;;;;;;62.70;26.48;;;;;;;;;;4260379;33;20120;-68
2021/08/13 03:38:03;;;;;;;58.15;25.30;;;;;;;;;;4260271;33;20112;-68
2021/08/13 03:40:29;;;;;;;57.13;25.58;;;;;;;;;;4260194;33;20187;-67
2021/08/13 03:42:54;;;;;;;66.93;26.12;;;;;;;;;;4260349;33;20631;-67
2021/08/13 03:45:20;;;;;;;58.63;26.95;;;;;;;;;;4258894;33;20199;-67
2021/08/13 03:47:46;;;;;;;64.68;29.12;;;;;;;;;;4260067;33;20120;-67
2021/08/13 03:50:12;;;;;;;57.95;28.15;;;;;;;;;;4260281;33;20521;-67
2021/08/13 03:52:39;;;;;;;58.92;26.85;;;;;;;;;;4260457;33;20595;-64
2021/08/13 03:55:05;;;;;;;63.17;28.77;;;;;;;;;;4260079;33;20092;-65
2021/08/13 03:57:31;;;;;;;62.80;29.60;;;;;;;;;;4260030;33;20119;-65
2021/08/13 03:59:57;;;;;;;62.70;28.35;;;;;;;;;;4260091;33;20117;-64
2021/08/13 04:02:23;;;;;;;59.20;28.02;;;;;;;;;;4260126;33;20204;-65
2021/08/13 04:04:49;;;;;;;60.58;28.67;;;;;;;;;;4260154;33;20483;-64
2021/08/13 04:07:15;;;;;;;67.25;29.60;;;;;;;;;;4259799;33;20151;-65
2021/08/13 04:09:41;;;;;;;74.50;30.23;;;;;;;;;;4259992;33;20132;-64
2021/08/13 04:12:07;;;;;;;70.00;29.23;;;;;;;;;;4260110;33;20215;-65
2021/08/13 04:14:33;;;;;;;64.72;24.70;;;;;;;;;;4262014;33;20479;-65
2021/08/13 04:16:58;;;;;;;63.22;29.95;;;;;;;;;;4266529;33;20124;-65
2021/08/13 04:19:24;;;;;;;53.08;26.33;;;;;;;;;;4276424;33;20624;-65
2021/08/13 04:21:50;;;;;;;58.13;25.45;;;;;;;;;;4276447;33;20108;-65
2021/08/13 04:24:16;;;;;;;56.03;26.35;;;;;;;;;;4262895;33;20535;-68
2021/08/13 04:26:42;;;;;;;60.85;27.37;;;;;;;;;;4276198;33;20115;-65
2021/08/13 04:29:08;;;;;;;54.85;24.35;;;;;;;;;;4276109;33;20211;-65
2021/08/13 04:31:34;;;;;;;50.33;22.48;;;;;;;;;;4276234;33;20136;-65
2021/08/13 04:34:00;;;;;;;55.90;24.35;;;;;;;;;;4276288;33;20119;-65
2021/08/13 04:36:27;;;;;;;57.53;24.73;;;;;;;;;;4276394;33;20191;-65
2021/08/13 04:38:53;;;;;;;52.30;23.83;;;;;;;;;;4263154;33;20484;-64
2021/08/13 04:41:19;;;;;;;32.53;14.52;;;;;;;;;;4276234;33;20142;-65
2021/08/13 04:43:45;;;;;;;62.20;26.58;;;;;;;;;;4276322;33;20143;-65
2021/08/13 04:46:11;;;;;;;61.17;24.17;;;;;;;;;;4275942;33;20194;-65
2021/08/13 04:48:37;;;;;;;45.85;14.77;;;;;;;;;;4275906;33;20128;-65
2021/08/13 04:51:03;;;;;;;63.75;26.30;;;;;;;;;;4275975;33;20221;-65
2021/08/13 04:53:29;;;;;;;59.30;27.75;;;;;;;;;;4268558;33;20127;-65
2021/08/13 04:55:55;;;;;;;59.55;25.65;;;;;;;;;;4276012;33;20122;-64
2021/08/13 04:58:21;;;;;;;52.13;25.17;;;;;;;;;;4262412;33;20222;-64
2021/08/13 05:00:48;;;;;;;61.05;27.23;;;;;;;;;;4261233;33;20208;-64
2021/08/13 05:03:14;;;;;;;57.22;25.95;;;;;;;;;;4261280;33;20111;-63
2021/08/13 05:05:40;;;;;;;60.53;27.92;;;;;;;;;;4261592;33;20108;-64
2021/08/13 05:08:07;;;;;;;57.13;22.98;;;;;;;;;;4248535;33;20119;-64
2021/08/13 05:10:32;;;;;;;59.17;25.90;;;;;;;;;;4270150;33;20523;-64
2021/08/13 05:12:58;;;;;;;50.40;24.23;;;;;;;;;;4264309;33;20221;-65
2021/08/13 05:15:24;;;;;;;59.03;26.35;;;;;;;;;;4261908;33;20196;-64
2021/08/13 05:17:50;;;;;;;49.65;21.62;;;;;;;;;;4261246;33;20128;-64
2021/08/13 05:20:17;;;;;;;62.75;24.73;;;;;;;;;;4261382;33;20132;-64
2021/08/13 05:22:44;;;;;;;58.67;24.60;;;;;;;;;;4260943;33;20901;-64
2021/08/13 05:25:11;;;;;;;54.85;24.75;;;;;;;;;;4248366;33;20123;-64
2021/08/13 05:27:37;;;;;;;52.60;21.08;;;;;;;;;;4248248;33;20132;-64
2021/08/13 05:30:04;;;;;;;56.03;24.65;;;;;;;;;;4261519;33;20476;-64
2021/08/13 05:32:30;;;;;;;55.42;26.52;;;;;;;;;;4260630;33;20109;-64
2021/08/13 05:34:56;;;;;;;53.85;25.17;;;;;;;;;;4261290;33;20174;-64
2021/08/13 05:37:22;;;;;;;56.58;23.90;;;;;;;;;;4261024;33;20199;-64
2021/08/13 05:39:48;;;;;;;58.47;24.73;;;;;;;;;;4261176;33;20199;-64
2021/08/13 05:42:14;;;;;;;57.05;24.80;;;;;;;;;;4248164;33;20182;-64
2021/08/13 05:44:40;;;;;;;55.80;25.75;;;;;;;;;;4261176;33;20119;-65
2021/08/13 05:47:06;;;;;;;49.88;23.00;;;;;;;;;;4260887;33;20108;-64
2021/08/13 05:49:32;;;;;;;56.37;25.50;;;;;;;;;;4261098;33;20204;-64
2021/08/13 05:51:58;;;;;;;49.42;23.70;;;;;;;;;;4261085;33;20127;-64
2021/08/13 05:54:25;;;;;;;48.58;21.33;;;;;;;;;;4261099;33;20123;-64
2021/08/13 05:56:51;;;;;;;55.92;22.70;;;;;;;;;;4261178;33;20117;-64
2021/08/13 05:59:17;;;;;;;51.60;22.55;;;;;;;;;;4261078;33;20299;-64
2021/08/13 06:01:43;;;;;;;55.45;24.50;;;;;;;;;;4260892;33;20196;-65
2021/08/13 06:04:08;;;;;;;48.13;20.35;;;;;;;;;;4260658;33;20182;-64
2021/08/13 06:06:34;;;;;;;51.13;21.08;;;;;;;;;;4260944;33;20113;-64
2021/08/13 06:09:02;;;;;;;67.93;23.45;;;;;;;;;;4260946;33;20218;-65
2021/08/13 06:11:28;;;;;;;42.92;18.83;;;;;;;;;;4260702;33;20595;-64
2021/08/13 06:13:54;;;;;;;45.47;20.95;;;;;;;;;;4260726;33;20116;-65
2021/08/13 06:16:20;;;;;;;48.47;21.02;;;;;;;;;;4260483;33;20144;-64
2021/08/13 06:18:46;;;;;;;55.58;24.10;;;;;;;;;;4261008;33;20136;-64
2021/08/13 06:21:12;;;;;;;53.80;24.95;;;;;;;;;;4260595;33;20535;-64
2021/08/13 06:23:38;;;;;;;51.42;23.95;;;;;;;;;;4260993;33;20116;-65
2021/08/13 06:26:04;;;;;;;53.87;24.40;;;;;;;;;;4260791;33;20516;-64
2021/08/13 06:28:30;;;;;;;52.88;22.58;;;;;;;;;;4260809;33;20303;-64
2021/08/13 06:30:56;;;;;;;51.53;22.42;;;;;;;;;;4260903;33;20143;-63
2021/08/13 06:33:23;;;;;;;44.50;19.65;;;;;;;;;;4260383;33;20195;-63
2021/08/13 06:35:49;;;;;;;55.70;23.58;;;;;;;;;;4259901;33;20100;-63
2021/08/13 06:38:14;;;;;;;54.05;26.12;;;;;;;;;;4247685;33;20196;-64
2021/08/13 06:40:41;;;;;;;40.88;14.73;;;;;;;;;;4260584;33;20306;-64
2021/08/13 06:43:07;;;;;;;44.30;17.15;;;;;;;;;;4260248;33;20267;-64
2021/08/13 06:45:33;;;;;;;30.85;12.77;;;;;;;;;;4247590;33;20507;-64
2021/08/13 06:47:59;;;;;;;51.45;24.48;;;;;;;;;;4260444;33;20112;-63
2021/08/13 06:50:24;;;;;;;39.92;18.33;;;;;;;;;;4260678;33;20128;-63
2021/08/13 06:52:50;;;;;;;50.20;23.65;;;;;;;;;;4259915;33;20505;-63
2021/08/13 06:55:16;;;;;;;46.97;20.42;;;;;;;;;;4247609;33;20112;-64
2021/08/13 06:57:42;;;;;;;56.20;24.60;;;;;;;;;;4260489;33;20607;-63
2021/08/13 07:00:10;;;;;;;56.92;22.75;;;;;;;;;;4260538;33;20203;-64
2021/08/13 07:02:36;;;;;;;43.83;19.85;;;;;;;;;;4260711;33;20119;-64
2021/08/13 07:05:02;;;;;;;49.10;22.35;;;;;;;;;;4260719;33;20128;-64
2021/08/13 07:07:30;;;;;;;61.67;23.95;;;;;;;;;;4260504;33;20100;-64
2021/08/13 07:09:56;;;;;;;53.38;23.58;;;;;;;;;;4260481;33;20104;-64
2021/08/13 07:12:22;;;;;;;28.02;12.10;;;;;;;;;;4260375;33;20504;-63
2021/08/13 07:14:48;;;;;;;44.22;18.87;;;;;;;;;;4260449;33;20123;-64
2021/08/13 07:17:14;;;;;;;45.50;19.05;;;;;;;;;;4260169;33;20140;-64
2021/08/13 07:19:39;;;;;;;45.40;20.77;;;;;;;;;;4260231;33;20143;-65
2021/08/13 07:22:05;;;;;;;49.67;20.90;;;;;;;;;;4260274;33;20487;-64
2021/08/13 07:24:31;;;;;;;50.47;23.05;;;;;;;;;;4260304;33;20119;-64
2021/08/13 07:26:57;;;;;;;56.90;22.25;;;;;;;;;;4247373;33;20101;-64
2021/08/13 07:29:24;;;;;;;53.83;23.98;;;;;;;;;;4259313;33;20124;-65
2021/08/13 07:31:50;;;;;;;52.92;23.33;;;;;;;;;;4260323;33;20183;-64
2021/08/13 07:34:16;;;;;;;54.88;23.50;;;;;;;;;;4235448;33;20131;-65
2021/08/13 07:36:42;;;;;;;48.13;20.12;;;;;;;;;;4260259;33;20184;-64
2021/08/13 07:39:07;;;;;;;39.55;17.85;;;;;;;;;;4260240;33;20192;-64
2021/08/13 07:41:33;;;;;;;53.33;24.30;;;;;;;;;;4259819;33;20115;-64
2021/08/13 07:43:59;;;;;;;46.63;21.12;;;;;;;;;;4260336;33;20120;-64
2021/08/13 07:46:25;;;;;;;51.72;23.90;;;;;;;;;;4246802;33;20124;-64
2021/08/13 07:48:51;;;;;;;56.37;23.23;;;;;;;;;;4260145;33;20134;-64
2021/08/13 07:51:17;;;;;;;52.08;23.12;;;;;;;;;;4260073;33;20204;-64
2021/08/13 07:53:43;;;;;;;51.15;24.27;;;;;;;;;;4259931;33;20143;-64
2021/08/13 07:56:09;;;;;;;51.15;22.45;;;;;;;;;;4260128;33;20115;-64
2021/08/13 07:58:36;;;;;;;51.00;23.23;;;;;;;;;;4260080;33;20547;-65
2021/08/13 08:01:02;;;;;;;42.25;11.68;;;;;;;;;;4260060;33;20095;-64
2021/08/13 08:03:28;;;;;;;56.08;21.05;;;;;;;;;;4260061;33;20266;-64
2021/08/13 08:05:53;;;;;;;45.92;19.98;;;;;;;;;;4259812;33;20512;-64
2021/08/13 08:08:19;;;;;;;55.92;23.02;;;;;;;;;;4259555;33;20132;-64
2021/08/13 08:10:47;;;;;;;51.13;20.35;;;;;;;;;;4259868;33;20195;-65
2021/08/13 08:13:14;;;;;;;55.80;22.60;;;;;;;;;;4259749;33;20093;-65
2021/08/13 08:15:40;;;;;;;51.55;23.45;;;;;;;;;;4246708;33;20097;-65
2021/08/13 08:18:06;;;;;;;46.63;19.83;;;;;;;;;;4259565;33;20195;-65
2021/08/13 08:20:32;;;;;;;44.88;18.40;;;;;;;;;;4259780;33;20535;-65
2021/08/13 08:22:58;;;;;;;52.50;22.42;;;;;;;;;;4259760;33;20116;-65
2021/08/13 08:25:24;;;;;;;44.50;15.93;;;;;;;;;;4259713;33;20128;-65
2021/08/13 08:27:50;;;;;;;44.78;21.50;;;;;;;;;;4259795;33;20128;-65
2021/08/13 08:30:16;;;;;;;50.45;22.15;;;;;;;;;;4259910;33;20146;-65
2021/08/13 08:32:42;;;;;;;24.02;10.13;;;;;;;;;;4259335;33;20124;-65
2021/08/13 08:35:08;;;;;;;43.70;19.98;;;;;;;;;;4273579;33;20155;-65
2021/08/13 08:37:34;;;;;;;42.40;18.25;;;;;;;;;;4273931;33;20099;-66
2021/08/13 08:39:59;;;;;;;37.95;16.42;;;;;;;;;;4273281;33;20120;-65
2021/08/13 08:42:25;;;;;;;46.58;18.62;;;;;;;;;;4273458;33;20112;-64
2021/08/13 08:44:51;;;;;;;48.55;22.02;;;;;;;;;;4273627;33;20124;-63
2021/08/13 08:47:19;;;;;;;53.67;22.80;;;;;;;;;;4273681;33;20116;-64
2021/08/13 08:49:45;;;;;;;52.88;20.55;;;;;;;;;;4273765;33;20309;-64
2021/08/13 08:52:11;;;;;;;50.15;21.92;;;;;;;;;;4249009;33;20203;-64
2021/08/13 08:54:38;;;;;;;49.95;21.17;;;;;;;;;;4246157;33;20170;-63
2021/08/13 08:57:05;;;;;;;45.17;19.23;;;;;;;;;;4246215;33;20126;-63
2021/08/13 08:59:31;;;;;;;49.28;21.52;;;;;;;;;;4260949;33;20096;-63
2021/08/13 09:01:57;;;;;;;50.95;21.58;;;;;;;;;;4273574;33;20182;-63
2021/08/13 09:04:23;;;;;;;49.97;20.23;;;;;;;;;;4276049;33;20127;-63
2021/08/13 09:06:49;;;;;;;43.92;20.00;;;;;;;;;;4272070;33;20104;-63
2021/08/13 09:09:16;;;;;;;40.20;16.98;;;;;;;;;;4261498;33;20127;-63
2021/08/13 09:11:42;;;;;;;46.70;21.40;;;;;;;;;;4248252;33;20104;-63
2021/08/13 09:14:10;;;;;;;44.33;20.75;;;;;;;;;;4248548;33;20255;-63
2021/08/13 09:16:36;;;;;;;43.83;20.08;;;;;;;;;;4260727;33;20120;-63
2021/08/13 09:19:04;;;;;;;45.85;21.85;;;;;;;;;;4261441;33;20116;-62
2021/08/13 09:21:30;;;;;;;36.92;16.45;;;;;;;;;;4261157;33;20164;-62
2021/08/13 09:23:59;;;;;;;45.03;20.42;;;;;;;;;;4248235;33;20159;-62
2021/08/13 09:26:26;;;;;;;44.03;21.75;;;;;;;;;;4261330;33;20119;-62
2021/08/13 09:28:59;;;;;;;45.45;21.23;;;;;;;;;;4262068;33;20519;-62
2021/08/13 09:31:30;;;;;;;51.03;22.35;;;;;;;;;;4275593;33;20210;-62
2021/08/13 09:34:10;;;;;;;49.60;21.58;;;;;;;;;;4275539;33;20487;-62
2021/08/13 09:36:51;;;;;;;49.40;21.95;;;;;;;;;;4246414;33;20542;-63
2021/08/13 09:39:23;;;;;;;45.75;20.92;;;;;;;;;;4263852;33;20218;-63
2021/08/13 09:41:51;;;;;;;48.13;21.37;;;;;;;;;;4248719;33;20187;-66
2021/08/13 09:44:35;;;;;;;52.85;20.83;;;;;;;;;;4261284;33;20219;-66
2021/08/13 09:47:06;;;;;;;50.58;21.27;;;;;;;;;;4256769;33;20111;-69
2021/08/13 09:49:35;;;;;;;51.40;21.75;;;;;;;;;;4273780;33;20207;-66
2021/08/13 09:52:11;;;;;;;48.45;21.30;;;;;;;;;;4275258;33;20171;-66
2021/08/13 09:54:37;;;;;;;42.97;18.87;;;;;;;;;;4275382;33;20123;-67
2021/08/13 09:57:10;;;;;;;48.40;21.67;;;;;;;;;;4275009;33;20685;-67
2021/08/13 09:59:37;;;;;;;54.00;20.77;;;;;;;;;;4275384;33;20084;-66
2021/08/13 10:02:13;;;;;;;50.50;20.10;;;;;;;;;;4275157;33;20154;-67
2021/08/13 10:04:39;;;;;;;54.00;20.55;;;;;;;;;;4275593;33;20512;-68
2021/08/13 10:07:07;;;;;;;49.63;22.50;;;;;;;;;;4271513;33;20120;-68
2021/08/13 10:09:33;;;;;;;31.77;14.77;;;;;;;;;;4259786;33;20100;-68
2021/08/13 10:12:09;;;;;;;43.97;18.55;;;;;;;;;;4248229;33;20111;-68
2021/08/13 10:14:37;;;;;;;23.42;9.43;;;;;;;;;;4256668;33;20617;-66
2021/08/13 10:17:18;;;;;;;8.63;4.45;;;;;;;;;;4251748;33;20132;-67
2021/08/13 10:19:45;;;;;;;47.90;16.08;;;;;;;;;;4253528;33;20568;-67
2021/08/13 10:22:12;;;;;;;51.63;21.37;;;;;;;;;;4252231;33;20143;-67
2021/08/13 10:24:38;;;;;;;39.35;15.23;;;;;;;;;;4253204;33;20192;-67
2021/08/13 10:27:06;;;;;;;27.92;12.40;;;;;;;;;;4253453;33;20125;-68
2021/08/13 10:29:32;;;;;;;50.12;21.85;;;;;;;;;;4251027;33;20437;-68
2021/08/13 10:32:01;;;;;;;40.33;16.30;;;;;;;;;;4252467;33;20109;-67
2021/08/13 10:34:27;;;;;;;45.72;18.55;;;;;;;;;;4251899;33;20129;-68
2021/08/13 10:36:54;;;;;;;39.88;18.37;;;;;;;;;;4250552;33;20122;-68
2021/08/13 10:39:23;;;;;;;38.97;18.17;;;;;;;;;;4249846;33;20113;-68
2021/08/13 10:41:53;;;;;;;21.77;11.12;;;;;;;;;;4260958;33;20136;-67
2021/08/13 10:44:21;;;;;;;33.17;13.70;;;;;;;;;;4259332;33;20440;-66
2021/08/13 10:46:48;;;;;;;47.55;19.50;;;;;;;;;;4260623;33;20496;-66
2021/08/13 10:49:14;;;;;;;33.75;15.35;;;;;;;;;;4259045;33;20101;-67
2021/08/13 10:51:41;;;;;;;51.53;24.73;;;;;;;;;;4259393;33;20097;-64
2021/08/13 10:54:10;;;;;;;53.00;22.23;;;;;;;;;;4259104;33;20203;-64
2021/08/13 10:56:43;;;;;;;49.90;20.98;;;;;;;;;;4260527;33;20191;-64
2021/08/13 10:59:10;;;;;;;36.92;15.98;;;;;;;;;;4260448;33;20539;-64
2021/08/13 11:01:36;;;;;;;46.47;20.37;;;;;;;;;;4259140;33;20109;-64
2021/08/13 11:04:04;;;;;;;41.35;16.73;;;;;;;;;;4259270;33;20229;-65
2021/08/13 11:06:37;;;;;;;41.67;16.65;;;;;;;;;;4257628;33;20108;-63
2021/08/13 11:09:10;;;;;;;46.55;18.77;;;;;;;;;;4252631;33;20199;-64
2021/08/13 11:11:51;;;;;;;48.72;19.33;;;;;;;;;;4246218;33;20200;-63
2021/08/13 11:14:25;;;;;;;50.38;21.48;;;;;;;;;;4246646;33;20127;-63
2021/08/13 11:16:51;;;;;;;48.75;21.95;;;;;;;;;;4244837;33;20120;-63
2021/08/13 11:19:19;;;;;;;48.65;23.85;;;;;;;;;;4246240;33;20274;-67
2021/08/13 11:21:49;;;;;;;43.38;19.12;;;;;;;;;;4244430;33;20293;-65
2021/08/13 11:24:18;;;;;;;49.58;20.67;;;;;;;;;;4254409;33;20277;-65
2021/08/13 11:26:49;;;;;;;44.97;18.52;;;;;;;;;;4260639;33;20135;-66
2021/08/13 11:29:31;;;;;;;50.17;22.08;;;;;;;;;;4260666;33;20188;-65
2021/08/13 11:31:58;;;;;;;56.85;23.98;;;;;;;;;;4260532;33;20136;-65
2021/08/13 11:34:58;;;;;;;33.92;15.05;;;;;;;;;;4259172;33;20196;-65
2021/08/13 11:37:45;;;;;;;54.47;23.10;;;;;;;;;;4260170;33;20138;-65
2021/08/13 11:40:11;;;;;;;54.00;19.98;;;;;;;;;;4258848;33;20123;-64
2021/08/13 11:42:37;;;;;;;46.90;20.48;;;;;;;;;;4246141;33;20120;-64
2021/08/13 11:45:05;;;;;;;34.95;15.43;;;;;;;;;;4244743;33;20203;-64
2021/08/13 11:47:31;;;;;;;60.12;23.95;;;;;;;;;;4246100;33;20135;-63
2021/08/13 11:49:58;;;;;;;54.65;22.77;;;;;;;;;;4244923;33;20128;-64
2021/08/13 11:52:26;;;;;;;52.58;20.20;;;;;;;;;;4244440;33;20518;-65
2021/08/13 11:54:54;;;;;;;52.05;19.52;;;;;;;;;;4245927;33;20118;-64
2021/08/13 11:57:22;;;;;;;52.38;20.33;;;;;;;;;;4246039;33;20101;-64
2021/08/13 11:59:49;;;;;;;39.47;16.35;;;;;;;;;;4244730;33;20183;-64
2021/08/13 12:02:28;;;;;;;25.70;11.30;;;;;;;;;;4244478;33;20242;-63
2021/08/13 12:05:08;;;;;;;47.33;15.68;;;;;;;;;;4246266;33;20108;-64
2021/08/13 12:07:35;;;;;;;46.47;18.70;;;;;;;;;;4235037;33;20128;-64
2021/08/13 12:10:13;;;;;;;44.78;20.60;;;;;;;;;;4258986;33;20115;-65
2021/08/13 12:12:39;;;;;;;41.90;15.13;;;;;;;;;;4259991;33;20116;-62
2021/08/13 12:15:07;;;;;;;47.78;22.08;;;;;;;;;;4259985;33;20539;-63
2021/08/13 12:17:33;;;;;;;54.90;23.20;;;;;;;;;;4267652;33;20131;-63
2021/08/13 12:20:01;;;;;;;47.58;22.20;;;;;;;;;;4274103;33;20116;-63
2021/08/13 12:22:45;;;;;;;45.78;21.23;;;;;;;;;;4260952;33;20099;-63
2021/08/13 12:25:12;;;;;;;47.28;20.33;;;;;;;;;;4274285;33;20118;-64
2021/08/13 12:27:39;;;;;;;46.92;19.20;;;;;;;;;;4273863;33;20203;-63
2021/08/13 12:30:15;;;;;;;58.72;24.42;;;;;;;;;;4274226;33;20523;-63
2021/08/13 12:32:43;;;;;;;46.95;22.15;;;;;;;;;;4273885;33;20096;-63
2021/08/13 12:35:15;;;;;;;52.08;21.73;;;;;;;;;;4276536;33;20092;-64
2021/08/13 12:37:43;;;;;;;53.35;22.60;;;;;;;;;;4276218;33;20146;-64
2021/08/13 12:40:12;;;;;;;47.78;20.85;;;;;;;;;;4276137;33;20110;-64
2021/08/13 12:42:40;;;;;;;48.97;24.02;;;;;;;;;;4268747;33;20111;-64
2021/08/13 12:45:09;;;;;;;52.22;22.35;;;;;;;;;;4248987;33;20117;-65
2021/08/13 12:47:35;;;;;;;51.58;24.52;;;;;;;;;;4237048;33;20591;-64
2021/08/13 12:50:01;;;;;;;54.47;24.48;;;;;;;;;;4248651;33;20109;-64
2021/08/13 12:52:27;;;;;;;47.90;22.60;;;;;;;;;;4248367;33;20123;-64
2021/08/13 12:54:54;;;;;;;48.25;22.85;;;;;;;;;;4261671;33;20508;-64
2021/08/13 12:57:21;;;;;;;48.03;23.60;;;;;;;;;;4261572;33;20132;-64
2021/08/13 12:59:49;;;;;;;52.20;22.83;;;;;;;;;;4261761;33;20443;-64
2021/08/13 13:02:23;;;;;;;53.33;22.52;;;;;;;;;;4248405;33;20192;-64
2021/08/13 13:04:52;;;;;;;47.25;20.33;;;;;;;;;;4261879;33;20290;-64
2021/08/13 13:07:38;;;;;;;49.47;22.27;;;;;;;;;;4261181;33;20191;-64
2021/08/13 13:10:14;;;;;;;47.65;20.98;;;;;;;;;;4248322;33;20503;-64
2021/08/13 13:12:40;;;;;;;44.80;22.10;;;;;;;;;;4261498;33;20447;-64
2021/08/13 13:15:07;;;;;;;51.10;21.10;;;;;;;;;;4260119;33;20097;-64
2021/08/13 13:17:34;;;;;;;48.55;22.52;;;;;;;;;;4261456;33;20167;-64
2021/08/13 13:20:05;;;;;;;51.28;20.45;;;;;;;;;;4261667;33;20187;-64
2021/08/13 13:22:31;;;;;;;43.35;18.55;;;;;;;;;;4248454;33;20548;-64
2021/08/13 13:25:10;;;;;;;46.33;20.42;;;;;;;;;;4248308;33;20219;-65
2021/08/13 13:27:50;;;;;;;45.08;21.65;;;;;;;;;;4261287;33;20108;-63
2021/08/13 13:30:36;;;;;;;46.90;20.17;;;;;;;;;;4248351;33;20126;-64
2021/08/13 13:33:22;;;;;;;46.90;21.00;;;;;;;;;;4261535;33;20097;-65
2021/08/13 13:36:02;;;;;;;49.33;19.80;;;;;;;;;;4261339;33;20320;-65
2021/08/13 13:38:30;;;;;;;42.38;19.35;;;;;;;;;;4261385;33;20116;-65
2021/08/13 13:40:56;;;;;;;54.00;22.15;;;;;;;;;;4248244;33;20134;-64
2021/08/13 13:43:22;;;;;;;57.50;24.05;;;;;;;;;;4261373;33;20524;-64
2021/08/13 13:45:51;;;;;;;47.15;22.50;;;;;;;;;;4261231;33;20440;-65
2021/08/13 13:48:17;;;;;;;47.90;22.60;;;;;;;;;;4248076;33;20144;-65
2021/08/13 13:50:44;;;;;;;51.25;20.88;;;;;;;;;;4265229;33;20084;-67
2021/08/13 13:53:10;;;;;;;47.85;21.67;;;;;;;;;;4248015;33;20150;-67
2021/08/13 13:55:35;;;;;;;47.75;22.20;;;;;;;;;;4261091;33;20120;-67
2021/08/13 13:58:01;;;;;;;42.70;19.85;;;;;;;;;;4247888;33;20105;-67
2021/08/13 14:00:27;;;;;;;50.08;22.05;;;;;;;;;;4260985;33;20668;-67
2021/08/13 14:02:53;;;;;;;47.58;20.30;;;;;;;;;;4261107;33;20104;-66
2021/08/13 14:05:19;;;;;;;43.67;20.52;;;;;;;;;;4261098;33;20807;-67
2021/08/13 14:07:47;;;;;;;43.87;21.98;;;;;;;;;;4262853;33;20124;-67
2021/08/13 14:10:17;;;;;;;49.20;22.42;;;;;;;;;;4275371;33;20112;-67
2021/08/13 14:12:44;;;;;;;52.97;22.15;;;;;;;;;;4275691;33;20122;-70
2021/08/13 14:15:11;;;;;;;47.80;22.60;;;;;;;;;;4275386;33;20104;-69
2021/08/13 14:17:37;;;;;;;50.05;22.52;;;;;;;;;;4275443;33;20474;-67
2021/08/13 14:20:05;;;;;;;54.70;22.35;;;;;;;;;;4262360;33;20098;-67
2021/08/13 14:22:31;;;;;;;50.78;21.98;;;;;;;;;;4275397;33;20111;-66
2021/08/13 14:24:57;;;;;;;55.08;22.92;;;;;;;;;;4275328;33;20543;-66
2021/08/13 14:27:23;;;;;;;56.45;23.25;;;;;;;;;;4275272;33;20120;-67
2021/08/13 14:29:49;;;;;;;56.47;24.67;;;;;;;;;;4275193;33;20156;-67
2021/08/13 14:32:15;;;;;;;51.72;23.67;;;;;;;;;;4275306;33;20119;-67
2021/08/13 14:34:41;;;;;;;46.30;25.15;;;;;;;;;;4275231;33;20307;-67
2021/08/13 14:37:07;;;;;;;55.75;25.60;;;;;;;;;;4274980;33;20108;-67